Latest Weather Observations for Brisbane

IDQ60801

Issued at 12:02 pm EST Saturday 21 January 2017 (issued every 30 minutes, with the page automatically refreshed every 10 minutes)

About weather observations | Map of weather stations | Latest weather observations for QLD | Other Formats
Station Details ID: 040913 Name: BRISBANE Lat: -27.48 Lon: 153.04 Height: 8.13 m
Data from the previous 72 hours. | See also: Recent months at Brisbane
Date/Time
EST
Temp
°C
App
Temp
°C
Dew
Point
°C
Rel
Hum
%
Delta-T
°C
Wind Press
QNH
hPa
Press
MSL
hPa
Rain since
9am
mm
Dir  Spd
km/h
Gust
km/h
Spd
kts
Gust
kts
21/11:30am 33.3 37.6 23.3 55 6.9 SW 6 9 3 5 1006.6 1006.5 0.0
21/11:00am 33.3 37.6 23.3 55 6.9 WSW 6 11 3 6 1006.8 1006.7 0.0
21/10:30am 32.6 36.3 23.3 58 6.4 WSW 9 17 5 9 1006.9 1006.8 0.0
21/10:00am 32.0 35.6 23.0 59 6.2 W 9 17 5 9 1006.8 1006.7 0.0
21/09:30am 31.8 35.3 22.8 59 6.2 W 9 19 5 10 1006.7 1006.6 0.0
21/09:00am 31.1 34.5 22.7 61 5.8 W 9 17 5 9 1006.7 1006.6 0.0
21/08:30am 30.8 35.1 22.7 62 5.5 WNW 4 6 2 3 1006.3 1006.2 0.0
21/08:00am 29.9 34.6 22.6 65 5.0 SSE 2 4 1 2 1006.2 1006.1 0.0
21/07:30am 29.8 34.2 22.8 66 4.8 S 4 6 2 3 1006.0 1005.9 0.0
21/07:00am 29.1 33.5 22.8 69 4.3 W 4 6 2 3 1005.8 1005.7 0.0
21/06:30am 28.4 32.6 22.4 70 4.1 WSW 4 6 2 3 1005.7 1005.6 0.0
21/06:00am 28.5 32.2 22.3 69 4.2 WSW 6 13 3 7 1005.5 1005.4 0.0
21/05:30am 28.8 32.4 22.1 67 4.5 WSW 6 11 3 6 1005.0 1004.9 0.0
21/05:00am 29.0 32.7 22.5 68 4.4 WSW 7 17 4 9 1004.9 1004.8 0.0
21/04:30am 28.5 33.1 23.2 73 3.6 SW 4 9 2 5 1004.3 1004.2 0.0
21/04:00am 28.4 33.8 23.8 76 3.2 W 2 4 1 2 1003.8 1003.7 0.0
21/03:30am 28.5 33.5 23.9 76 3.2 SW 4 6 2 3 1003.5 1003.4 0.0
21/03:00am 28.3 34.0 23.7 76 3.2 CALM 0 0 0 0 1003.0 1002.9 0.0
21/02:30am 28.7 33.8 23.4 73 3.6 NW 2 4 1 2 1002.7 1002.6 0.0
21/02:00am 29.1 33.9 22.8 69 4.3 NW 2 6 1 3 1002.9 1002.8 0.0
21/01:30am 28.8 33.6 24.1 76 3.3 WNW 6 9 3 5 1003.0 1002.9 0.0
21/01:00am 29.0 33.8 24.1 75 3.4 NW 6 9 3 5 1002.8 1002.7 0.0
21/12:30am 28.7 34.2 24.7 79 2.8 NNW 4 7 2 4 1003.0 1002.9 0.0
21/12:00am 28.3 34.2 24.7 81 2.5 NE 2 6 1 3 1003.4 1003.3 0.0
 
Date/Time
EST
Temp
°C
App
Temp
°C
Dew
Point
°C
Rel
Hum
%
Delta-T
°C
Wind Press
QNH
hPa
Press
MSL
hPa
Rain since
9am
mm
Dir  Spd
km/h
Gust
km/h
Spd
kts
Gust
kts
20/11:30pm 28.1 34.2 24.5 81 2.5 CALM 0 0 0 0 1003.7 1003.6 0.0
20/11:00pm 28.2 34.4 24.6 81 2.5 CALM 0 4 0 2 1004.0 1003.9 0.0
20/10:30pm 28.1 34.0 24.1 79 2.8 CALM 0 2 0 1 1004.5 1004.4 0.0
20/10:00pm 28.5 33.8 24.3 78 2.9 ESE 4 7 2 4 1004.7 1004.6 0.0
20/09:30pm 29.0 33.8 24.1 75 3.4 SSE 6 9 3 5 1004.5 1004.4 0.0
20/09:00pm 29.2 33.8 24.1 74 3.5 SSE 7 13 4 7 1004.6 1004.5 0.0
20/08:30pm 29.7 34.3 24.1 72 3.9 WSW 7 19 4 10 1004.5 1004.4 0.0
20/08:00pm 29.1 33.7 24.2 75 3.4 NE 7 13 4 7 1002.9 1002.8 0.0
20/07:30pm 28.9 33.5 24.2 76 3.3 NE 7 19 4 10 1002.7 1002.6 0.0
20/07:00pm 28.9 33.4 24.0 75 3.4 NE 7 15 4 8 1003.1 1003.0 0.0
20/06:30pm 28.9 33.0 24.0 75 3.4 NE 9 19 5 10 1003.1 1003.0 0.0
20/06:00pm 29.3 32.4 23.5 71 4.0 NE 13 24 7 13 1003.0 1002.9 0.0
20/05:30pm 29.6 32.7 23.5 69 4.2 NE 13 22 7 12 1002.9 1002.8 0.0
20/05:00pm 30.0 33.2 23.7 69 4.4 NE 13 22 7 12 1002.6 1002.5 0.0
20/04:30pm 30.6 34.0 23.3 65 5.0 NE 11 19 6 10 1002.6 1002.5 0.0
20/04:00pm 30.6 33.1 22.5 62 5.5 NE 13 24 7 13 1002.8 1002.7 0.0
20/03:30pm 31.1 34.0 22.4 60 5.9 NNE 11 20 6 11 1003.1 1003.0 0.0
20/03:00pm 31.6 34.6 22.6 59 6.2 NNE 11 20 6 11 1003.3 1003.2 0.0
20/02:30pm 32.1 35.6 22.8 58 6.4 NNE 9 20 5 11 1003.8 1003.7 0.0
20/02:00pm 32.1 35.2 22.8 58 6.4 NNE 11 19 6 10 1004.4 1004.3 0.0
20/01:30pm 31.5 34.0 22.5 59 6.1 ENE 13 22 7 12 1004.9 1004.8 0.0
20/01:00pm 32.0 35.4 22.7 58 6.4 NE 9 17 5 9 1005.3 1005.2 0.0
20/12:30pm 30.6 33.9 21.9 59 5.9 NE 7 13 4 7 1006.1 1006.0 0.0
20/12:00pm 31.1 34.5 21.6 57 6.4 NNW 6 11 3 6 1006.8 1006.7 0.0
20/11:30am 31.2 35.0 21.7 57 6.4 NNW 4 13 2 7 1007.1 1007.0 0.0
20/11:00am 31.0 34.3 21.5 57 6.4 NNE 6 11 3 6 1007.4 1007.3 0.0
20/10:30am 30.9 34.4 21.9 58 6.1 NNE 6 11 3 6 1008.1 1008.0 0.0
20/10:00am 29.9 33.3 21.6 61 5.6 NNE 6 9 3 5 1008.4 1008.3 0.0
20/09:30am 29.3 32.8 21.8 64 5.0 ENE 6 11 3 6 1008.8 1008.7 0.0
20/09:00am 28.1 31.5 20.9 65 4.8 NW 4 9 2 5 1009.3 1009.2 0.0
20/08:30am 27.5 31.0 21.1 68 4.2 NW 4 6 2 3 1009.2 1009.1 0.0
20/08:00am 27.2 31.7 21.5 71 3.8 CALM 0 4 0 2 1009.4 1009.3 0.0
20/07:30am 26.0 29.0 20.8 73 3.4 W 6 7 3 4 1009.8 1009.7 0.0
20/07:00am 25.8 29.6 21.0 75 3.2 W 2 7 1 4 1009.9 1009.8 0.0
20/06:30am 25.2 29.3 20.7 76 2.9 CALM 0 0 0 0 1009.7 1009.6 0.0
20/06:00am 24.9 28.6 20.8 78 2.7 ESE 2 4 1 2 1009.4 1009.3 0.0
20/05:30am 24.8 28.1 20.7 78 2.7 SSE 4 6 2 3 1009.3 1009.2 0.0
20/05:00am 24.8 28.0 20.5 77 2.8 S 4 7 2 4 1009.0 1008.9 0.0
20/04:30am 24.7 27.9 20.4 77 2.8 SSE 4 7 2 4 1008.6 1008.5 0.0
20/04:00am 24.7 27.9 20.4 77 2.8 SE 4 6 2 3 1008.3 1008.2 0.0
20/03:30am 24.6 27.6 20.1 76 2.9 S 4 7 2 4 1008.6 1008.5 0.0
20/03:00am 24.7 27.8 20.2 76 2.9 SE 4 7 2 4 1008.6 1008.5 0.0
20/02:30am 24.7 27.8 20.2 76 2.9 SE 4 9 2 5 1008.7 1008.6 0.0
20/02:00am 24.8 27.5 20.3 76 2.9 E 6 7 3 4 1009.0 1008.9 0.0
20/01:30am 24.9 28.0 20.2 75 3.1 E 4 9 2 5 1009.3 1009.2 0.0
20/01:00am 24.9 27.8 19.9 74 3.2 ESE 4 7 2 4 1009.5 1009.4 0.0
20/12:30am 25.1 27.6 19.9 73 3.4 ESE 6 13 3 7 1009.5 1009.4 0.0
20/12:00am 25.2 27.8 20.0 73 3.4 ESE 6 9 3 5 1009.9 1009.8 0.0
 
Date/Time
EST
Temp
°C
App
Temp
°C
Dew
Point
°C
Rel
Hum
%
Delta-T
°C
Wind Press
QNH
hPa
Press
MSL
hPa
Rain since
9am
mm
Dir  Spd
km/h
Gust
km/h
Spd
kts
Gust
kts
19/11:30pm 25.4 28.0 20.0 72 3.5 SE 6 7 3 4 1010.4 1010.3 0.0
19/11:00pm 25.5 28.1 20.1 72 3.5 SE 6 11 3 6 1010.8 1010.7 0.0
19/10:30pm 25.5 27.9 20.1 72 3.5 ESE 7 13 4 7 1010.8 1010.7 0.0
19/10:00pm 25.6 28.3 20.2 72 3.5 ESE 6 13 3 7 1011.1 1011.1 0.0
19/09:30pm 25.6 28.3 20.2 72 3.5 E 6 11 3 6 1011.4 1011.4 0.0
19/09:00pm 25.6 28.7 20.2 72 3.5 SE 4 7 2 4 1011.5 1011.5 0.0
19/08:30pm 25.5 28.4 19.9 71 3.6 SE 4 7 2 4 1011.2 1011.2 0.0
19/08:00pm 25.6 28.1 19.9 70 3.7 SE 6 11 3 6 1010.9 1010.9 0.0
19/07:30pm 25.7 28.2 19.8 70 3.8 SE 6 11 3 6 1010.9 1010.9 0.0
19/07:00pm 25.7 26.8 19.6 69 3.9 ESE 13 20 7 11 1010.3 1010.2 0.0
19/06:30pm 26.2 27.3 18.9 64 4.7 E 11 20 6 11 1010.1 1010.0 0.0
19/06:00pm 27.1 27.5 18.9 61 5.3 ESE 15 28 8 15 1009.6 1009.5 0.0
19/05:30pm 27.6 28.6 19.4 61 5.3 ESE 13 22 7 12 1009.4 1009.3 0.0
19/05:00pm 28.4 30.0 19.9 60 5.6 ESE 11 19 6 10 1009.0 1008.9 0.0
19/04:30pm 28.6 29.2 20.3 60 5.5 E 17 24 9 13 1008.5 1008.4 0.0
19/04:00pm 29.3 30.6 20.2 58 6.0 ESE 13 22 7 12 1008.7 1008.6 0.0
19/03:30pm 29.9 31.2 20.2 56 6.4 ESE 13 24 7 13 1008.8 1008.7 0.0
19/03:00pm 30.4 32.2 20.3 54 6.7 ESE 11 22 6 12 1009.0 1008.9 0.0
19/02:30pm 29.3 29.8 19.3 55 6.5 ESE 15 24 8 13 1009.4 1009.3 0.0
19/02:00pm 29.4 30.5 19.7 56 6.3 ESE 13 22 7 12 1009.8 1009.7 0.0
19/01:30pm 29.8 31.1 20.1 56 6.4 ESE 13 20 7 11 1010.0 1009.9 0.0
19/01:00pm 30.1 31.6 20.6 56 6.3 E 13 24 7 13 1010.1 1010.0 0.0
19/12:30pm 29.7 31.6 20.5 57 6.1 ESE 11 19 6 10 1010.3 1010.2 0.0
19/12:00pm 30.0 32.3 21.4 60 5.8 ESE 11 19 6 10 1010.4 1010.3 0.0
19/11:30am 29.4 32.1 21.4 62 5.4 ESE 9 17 5 9 1010.6 1010.5 0.0
19/11:00am 29.4 32.4 21.9 64 5.1 ESE 9 17 5 9 1010.7 1010.6 0.0
19/10:30am 28.9 32.1 21.7 65 4.8 ESE 7 11 4 6 1010.8 1010.7 0.0
19/10:00am 28.9 32.1 21.7 65 4.8 ESE 7 13 4 7 1010.9 1010.9 0.0
19/09:30am 28.9 32.2 21.9 66 4.7 E 7 9 4 5 1011.0 1011.0 0.0
19/09:00am 28.6 32.7 22.3 68 4.3 ESE 4 7 2 4 1011.0 1011.0 0.0
19/08:30am 28.2 32.3 22.2 70 4.0 SE 4 7 2 4 1011.0 1011.0 0.0
19/08:00am 28.0 31.7 21.5 67 4.3 SSW 4 7 2 4 1010.8 1010.7 0.0
19/07:30am 27.9 32.0 22.2 71 3.8 SSW 4 7 2 4 1010.8 1010.7 0.0
19/07:00am 28.0 33.1 22.7 73 3.6 CALM 0 4 0 2 1010.5 1010.4 0.0
19/06:30am 27.6 32.0 22.8 75 3.3 SSW 4 6 2 3 1010.2 1010.1 0.0
19/06:00am 27.1 32.0 23.1 79 2.7 E 2 4 1 2 1009.8 1009.7 0.0
19/05:30am 26.5 31.4 23.0 81 2.4 NE 2 6 1 3 1009.3 1009.2 0.0
19/05:00am 26.6 30.8 23.1 81 2.4 ENE 6 11 3 6 1009.0 1008.9 0.0
19/04:30am 26.6 30.9 23.7 84 2.0 E 7 11 4 6 1008.4 1008.3 0.0
19/04:00am 26.4 30.9 23.7 85 1.9 ENE 6 11 3 6 1008.1 1008.0 0.0
19/03:30am 26.2 30.5 23.3 84 2.0 ESE 6 9 3 5 1007.9 1007.8 0.0
19/03:00am 26.0 29.8 22.7 82 2.2 ESE 7 13 4 7 1007.4 1007.3 0.0
19/02:30am 25.8 30.4 22.5 82 2.2 ENE 2 4 1 2 1006.4 1006.3 0.0
19/02:00am 26.0 30.7 22.7 82 2.2 ENE 2 4 1 2 1006.5 1006.4 0.0
19/01:30am 26.5 31.3 22.8 80 2.5 NE 2 4 1 2 1006.8 1006.7 0.0
19/01:00am 26.7 31.1 22.8 79 2.6 NE 4 7 2 4 1007.1 1007.0 0.0
19/12:30am 26.9 31.4 22.9 79 2.7 ENE 4 6 2 3 1007.5 1007.4 0.0
19/12:00am 27.1 31.8 22.7 77 3.0 NE 2 6 1 3 1007.6 1007.5 0.0
 
Date/Time
EST
Temp
°C
App
Temp
°C
Dew
Point
°C
Rel
Hum
%
Delta-T
°C
Wind Press
QNH
hPa
Press
MSL
hPa
Rain since
9am
mm
Dir  Spd
km/h
Gust
km/h
Spd
kts
Gust
kts
18/11:30pm 27.2 32.0 22.8 77 3.0 NE 2 6 1 3 1007.9 1007.8 0.0
18/11:00pm 27.5 31.8 22.7 75 3.3 NNE 4 6 2 3 1008.2 1008.1 0.0
18/10:30pm 27.7 31.8 22.9 75 3.3 NE 6 9 3 5 1008.5 1008.4 0.0
18/10:00pm 28.0 32.5 22.9 74 3.5 NE 4 9 2 5 1008.5 1008.4 0.0
18/09:30pm 28.2 32.3 22.9 73 3.6 NNE 6 9 3 5 1008.6 1008.5 0.0
18/09:00pm 28.4 33.0 23.1 73 3.6 NNE 4 9 2 5 1008.5 1008.4 0.0
18/08:30pm 28.6 32.6 23.1 72 3.8 NNE 7 13 4 7 1008.4 1008.3 0.0
18/08:00pm 28.7 32.8 22.9 71 4.0 NE 6 13 3 7 1008.3 1008.2 0.0
18/07:30pm 28.9 32.8 22.9 70 4.1 NNE 7 17 4 9 1008.1 1008.0 0.0
18/07:00pm 29.2 33.0 22.7 68 4.4 NNE 7 15 4 8 1008.0 1007.9 0.0
18/06:30pm 29.3 32.9 23.0 69 4.3 NE 9 17 5 9 1007.8 1007.7 0.0
18/06:00pm 30.4 34.0 23.1 65 5.0 NE 9 22 5 12 1007.9 1007.8 0.0
18/05:30pm 30.9 34.1 23.0 62 5.4 NE 11 20 6 11 1007.7 1007.6 0.0
18/05:00pm 31.3 34.4 22.9 61 5.8 NNE 11 24 6 13 1007.7 1007.6 0.0
18/04:30pm 31.8 35.3 22.8 59 6.2 NE 9 15 5 8 1007.7 1007.6 0.0
18/04:00pm 32.6 36.0 22.7 56 6.8 NE 9 19 5 10 1007.9 1007.8 0.0
18/03:30pm 33.2 36.5 22.6 53 7.3 NNE 9 17 5 9 1008.0 1007.9 0.0
18/03:00pm 33.0 35.9 22.4 53 7.3 NE 11 24 6 13 1008.3 1008.2 0.0
18/02:30pm 33.4 36.1 22.2 52 7.7 NE 11 19 6 10 1008.8 1008.7 0.0
18/02:00pm 33.5 36.3 21.6 49 8.1 NE 9 19 5 10 1009.4 1009.3 0.0
18/01:30pm 33.3 36.2 22.4 52 7.5 ENE 11 17 6 9 1009.7 1009.6 0.0
18/01:00pm 33.9 36.9 22.0 49 8.1 NE 9 13 5 7 1010.1 1010.0 0.0
18/12:30pm 34.6 37.1 20.2 43 9.6 SW 7 19 4 10 1010.7 1010.6 0.0

Other Formats:

Comma delimited format used in spreadsheet applications
http://www.bom.gov.au/fwo/IDQ60801/IDQ60801.94576.axf

JavaScript Object Notation format (JSON) in row-major order
http://www.bom.gov.au/fwo/IDQ60801/IDQ60801.94576.json